Airfield :
LOGIN :

Register | Disclaimer

   EN    FR    IT 

 










Legend :    VFR   Marginal VFR   IFR   Intensive IFR   Very Intensive IFR
Visi :
Ceiling :
>= 8 km
>= 3000ft
5 to 8 km
1000 to 3000 ft
1500m to 5 km
500 to 1000 ft
800 to 1500m
200 to 500 ft
< 800m
< 200 ft
Symbols :   Thunderstorms  Fog  Heavy snow  Heavy precipitations  Wind > 20 kt
SIGMETs :     Misc.  Thunderstorms  Icing  Turbulence  Mountain Waves  Volcanic Ashes







- Airport Elevation : 74 ft
- IATA code : EIN


EHEH - Eindhoven

CURRENT METAR :
  • 262055Z AUTO 20003KT 9999 NCD 08/05 Q1017 BLU 21005KT CAVOK

EXPIRED METARs :
  • 262025Z AUTO VRB02KT 9999 FEW073 SCT079 08/05 Q1017 BLU 23005KT 9999 FEW045 FEW070
  • 261955Z AUTO 21001KT 9999 NCD 08/06 Q1017 BLU 24005KT 9999 FEW045 SCT070
  • 261925Z AUTO 29003KT 250V340 9999 FEW022CB SCT053 BKN088 10/05 Q1017 BLU 24005KT 9999 FEW045 SCT070
  • 261855Z AUTO 21003KT 200V320 9999 FEW021CB OVC052 10/05 Q1016 BLU 24005KT 9999 FEW045 SCT070
  • 261825Z AUTO 20002KT 9999 SCT054 SCT063 BKN071 10/05 Q1016 BLU 26010KT 9999 FEW045 SCT070 TEMPO FEW040CB SCT045
  • 261755Z AUTO 24003KT 210V290 9999 FEW067 SCT076 12/04 Q1016 BLU 26010KT 9999 FEW045 SCT070 TEMPO FEW040CB SCT045

TAF TAF EHEH
Valid from the 26 at 18:00 until the 28 at 00:00 UTC


261708Z 2618/2724 27007KT 9999 SCT040
PROB30
TEMPO 2618/2621 SCT030CB BKN040
BECMG 2712/2715 09005KT
BECMG 2722/2800 21006KT
No reported NOTAMs for that airfield.
1 SIGMET reported for the Amsterdam FIR (EHAA) :
 
Severe turbulence
EHAA SIGMET 1 VALID 261930/262200 EHDB
EHAA AMSTERDAM FIR SEV TURB OBS NE OF LINE N5423 E00247 - N5216 E00701 FL250/320 MOV NE 35KT NC=



MET'MAP, your aeronautical weather chart ! - Copyright ORBIFLY December 2007 - Disclaimer

ORBIFLY MET'MAP TEAM :

Programming & Development : Alexandra Zaïnal
Concept & Development : Baudouin d'Aumeries
Co-Development & Prog : Marc-Olivier Méhu
Technical & hardware support : Manuel Goepfert

Contact : metmap@orbifly.com




SOURCES & CREDITS :

   NOAA